createdAt,value
2017-01-31T00:00:32.741Z,997.62
2017-01-31T00:01:32.752Z,997.65
2017-01-31T00:02:32.765Z,997.7
2017-01-31T00:03:32.776Z,997.7
2017-01-31T00:04:32.786Z,997.71
2017-01-31T00:05:32.799Z,997.71
2017-01-31T00:06:32.809Z,997.73
2017-01-31T00:07:32.822Z,997.74
2017-01-31T00:08:32.834Z,997.69
2017-01-31T00:09:32.845Z,997.74
2017-01-31T00:10:32.856Z,997.72
2017-01-31T00:11:32.867Z,997.72
2017-01-31T00:12:32.879Z,997.74
2017-01-31T00:13:32.892Z,997.74
2017-01-31T00:14:32.902Z,997.76
2017-01-31T00:15:32.915Z,997.76
2017-01-31T00:16:32.924Z,997.73
2017-01-31T00:17:32.945Z,997.7
2017-01-31T00:18:32.950Z,997.78
2017-01-31T00:19:32.962Z,997.74
2017-01-31T00:20:32.973Z,997.75
2017-01-31T00:21:32.984Z,997.72
2017-01-31T00:22:32.995Z,997.78
2017-01-31T00:23:33.011Z,997.74
2017-01-31T00:24:33.019Z,997.78
2017-01-31T00:25:33.031Z,997.73
2017-01-31T00:26:33.041Z,997.74
2017-01-31T00:27:33.054Z,997.77
2017-01-31T00:28:33.066Z,997.78
2017-01-31T00:29:33.076Z,997.79
2017-01-31T00:30:33.089Z,997.81
2017-01-31T00:31:33.100Z,997.81
2017-01-31T00:32:33.113Z,997.8
2017-01-31T00:33:33.148Z,997.82
2017-01-31T00:34:33.135Z,997.77
2017-01-31T00:35:33.147Z,997.86
2017-01-31T00:36:33.161Z,997.83
2017-01-31T00:37:33.172Z,997.8
2017-01-31T00:38:33.184Z,997.78
2017-01-31T00:39:33.200Z,997.81
2017-01-31T00:40:33.207Z,997.83
2017-01-31T00:41:33.215Z,997.8
2017-01-31T00:42:33.228Z,997.76
2017-01-31T00:43:33.240Z,997.78
2017-01-31T00:44:33.251Z,997.76
2017-01-31T00:45:33.264Z,997.77
2017-01-31T00:46:33.275Z,997.77
2017-01-31T00:47:33.288Z,997.78
2017-01-31T00:48:33.300Z,997.8
2017-01-31T00:49:33.314Z,997.81
2017-01-31T00:50:33.321Z,997.74
2017-01-31T00:51:33.332Z,997.76
2017-01-31T00:52:33.344Z,997.78
2017-01-31T00:53:33.355Z,997.81
2017-01-31T00:54:33.368Z,997.79
2017-01-31T00:55:33.378Z,997.8
2017-01-31T00:56:33.392Z,997.81
2017-01-31T00:57:33.403Z,997.78
2017-01-31T00:58:33.413Z,997.75
2017-01-31T00:59:33.427Z,997.82
2017-01-31T01:00:33.437Z,997.79
2017-01-31T01:01:33.450Z,997.81
2017-01-31T01:02:33.462Z,997.81
2017-01-31T01:03:33.471Z,997.8
2017-01-31T01:04:33.484Z,997.8
2017-01-31T01:05:33.496Z,997.84
2017-01-31T01:06:33.506Z,997.88
2017-01-31T01:07:33.519Z,997.84
2017-01-31T01:08:33.532Z,997.87
2017-01-31T01:09:33.543Z,997.89
2017-01-31T01:10:33.554Z,997.92
2017-01-31T01:11:33.566Z,997.96
2017-01-31T01:12:33.577Z,997.99
2017-01-31T01:13:33.589Z,997.99
2017-01-31T01:14:33.601Z,997.99
2017-01-31T01:15:33.613Z,997.97
2017-01-31T01:16:33.624Z,998.01
2017-01-31T01:17:33.636Z,998.03
2017-01-31T01:18:33.647Z,998.06
2017-01-31T01:19:33.658Z,998.05
2017-01-31T01:20:33.669Z,998.07
2017-01-31T01:21:33.683Z,998.09
2017-01-31T01:22:33.693Z,998.1
2017-01-31T01:23:33.706Z,998.08
2017-01-31T01:24:33.717Z,998.11
2017-01-31T01:25:33.728Z,998.1
2017-01-31T01:26:33.742Z,998.12
2017-01-31T01:27:33.753Z,998.15
2017-01-31T01:28:33.763Z,998.19
2017-01-31T01:29:33.806Z,998.16
2017-01-31T01:30:33.788Z,998.23
2017-01-31T01:31:33.798Z,998.27
2017-01-31T01:32:33.810Z,998.27
2017-01-31T01:33:33.821Z,998.27
2017-01-31T01:34:33.833Z,998.26
2017-01-31T01:35:33.845Z,998.26
2017-01-31T01:36:33.857Z,998.27
2017-01-31T01:37:33.868Z,998.26
2017-01-31T01:38:33.879Z,998.26
2017-01-31T01:39:33.894Z,998.26
2017-01-31T01:40:33.909Z,998.26
2017-01-31T01:41:33.915Z,998.28
2017-01-31T01:42:33.927Z,998.29
2017-01-31T01:43:33.937Z,998.26
2017-01-31T01:44:33.952Z,998.29
2017-01-31T01:45:33.963Z,998.3
2017-01-31T01:46:33.974Z,998.31
2017-01-31T01:47:33.986Z,998.3
2017-01-31T01:48:33.999Z,998.29
2017-01-31T01:49:34.009Z,998.25
2017-01-31T01:50:34.020Z,998.28
2017-01-31T01:51:34.032Z,998.27
2017-01-31T01:52:34.048Z,998.29
2017-01-31T01:53:34.058Z,998.29
2017-01-31T01:54:34.069Z,998.27
2017-01-31T01:55:34.081Z,998.29
2017-01-31T01:56:34.097Z,998.29
2017-01-31T01:57:34.153Z,998.3
2017-01-31T01:58:34.115Z,998.28
2017-01-31T01:59:34.127Z,998.27
2017-01-31T02:00:34.140Z,998.27
2017-01-31T02:01:34.150Z,998.28
2017-01-31T02:02:34.177Z,998.26
2017-01-31T02:03:34.174Z,998.22
2017-01-31T02:04:34.186Z,998.23
2017-01-31T02:05:34.197Z,998.29
2017-01-31T02:06:34.210Z,998.25
2017-01-31T02:07:34.223Z,998.31
2017-01-31T02:08:34.232Z,998.27
2017-01-31T02:09:34.244Z,998.3
2017-01-31T02:10:34.257Z,998.31
2017-01-31T02:11:34.273Z,998.33
2017-01-31T02:12:34.279Z,998.36
2017-01-31T02:13:34.292Z,998.37
2017-01-31T02:14:34.304Z,998.35
2017-01-31T02:15:34.314Z,998.36
2017-01-31T02:16:34.326Z,998.37
2017-01-31T02:17:34.339Z,998.35
2017-01-31T02:18:34.349Z,998.38
2017-01-31T02:19:34.361Z,998.36
2017-01-31T02:20:34.389Z,998.38
2017-01-31T02:21:34.384Z,998.43
2017-01-31T02:22:34.398Z,998.44
2017-01-31T02:23:34.408Z,998.42
2017-01-31T02:24:34.421Z,998.43
2017-01-31T02:25:34.432Z,998.44
2017-01-31T02:26:34.443Z,998.46
2017-01-31T02:27:34.455Z,998.47
2017-01-31T02:28:34.468Z,998.48
2017-01-31T02:29:34.477Z,998.47
2017-01-31T02:30:34.498Z,998.45
2017-01-31T02:31:34.507Z,998.48
2017-01-31T02:32:34.515Z,998.47
2017-01-31T02:33:34.526Z,998.5
2017-01-31T02:34:34.536Z,998.47
2017-01-31T02:35:34.548Z,998.53
2017-01-31T02:36:34.560Z,998.52
2017-01-31T02:37:34.570Z,998.52
2017-01-31T02:38:34.584Z,998.51
2017-01-31T02:39:34.596Z,998.51
2017-01-31T02:40:34.609Z,998.54
2017-01-31T02:41:34.617Z,998.53
2017-01-31T02:42:34.629Z,998.54
2017-01-31T02:43:34.645Z,998.54
2017-01-31T02:44:34.654Z,998.59
2017-01-31T02:45:34.665Z,998.57
2017-01-31T02:46:34.677Z,998.59
2017-01-31T02:47:34.690Z,998.61
2017-01-31T02:48:34.706Z,998.57
2017-01-31T02:49:34.713Z,998.57
2017-01-31T02:50:34.725Z,998.55
2017-01-31T02:51:34.735Z,998.6
2017-01-31T02:52:34.746Z,998.6
2017-01-31T02:53:34.759Z,998.55
2017-01-31T02:54:34.770Z,998.57
2017-01-31T02:55:34.784Z,998.6
2017-01-31T02:56:34.793Z,998.59
2017-01-31T02:57:34.805Z,998.56
2017-01-31T02:58:34.817Z,998.59
2017-01-31T02:59:34.828Z,998.6
2017-01-31T03:00:34.845Z,998.58
2017-01-31T03:01:34.851Z,998.6
2017-01-31T03:02:34.863Z,998.59
2017-01-31T03:03:34.873Z,998.59
2017-01-31T03:04:34.889Z,998.61
2017-01-31T03:05:34.899Z,998.64
2017-01-31T03:06:34.910Z,998.62
2017-01-31T03:07:34.923Z,998.64
2017-01-31T03:08:34.933Z,998.66
2017-01-31T03:09:34.946Z,998.65
2017-01-31T03:10:34.956Z,998.67
2017-01-31T03:11:34.969Z,998.67
2017-01-31T03:12:34.983Z,998.65
2017-01-31T03:13:34.994Z,998.64
2017-01-31T03:14:35.006Z,998.65
2017-01-31T03:15:35.017Z,998.63
2017-01-31T03:16:35.027Z,998.64
2017-01-31T03:17:35.037Z,998.67
2017-01-31T03:18:35.053Z,998.64
2017-01-31T03:19:35.063Z,998.62
2017-01-31T03:20:35.073Z,998.66
2017-01-31T03:21:35.085Z,998.66
2017-01-31T03:22:35.100Z,998.67
2017-01-31T03:23:35.109Z,998.67
2017-01-31T03:24:35.124Z,998.7
2017-01-31T03:25:35.135Z,998.7
2017-01-31T03:26:35.145Z,998.7
2017-01-31T03:27:35.159Z,998.69
2017-01-31T03:28:35.168Z,998.7
2017-01-31T03:29:35.178Z,998.76
2017-01-31T03:30:35.190Z,998.76
2017-01-31T03:31:35.203Z,998.71
2017-01-31T03:32:35.214Z,998.78
2017-01-31T03:33:35.226Z,998.75
2017-01-31T03:34:35.237Z,998.77
2017-01-31T03:35:35.250Z,998.82
2017-01-31T03:36:35.259Z,998.81
2017-01-31T03:37:35.272Z,998.84
2017-01-31T03:38:35.283Z,998.81
2017-01-31T03:39:35.297Z,998.82
2017-01-31T03:40:35.309Z,998.81
2017-01-31T03:41:35.323Z,998.82
2017-01-31T03:42:35.334Z,998.79
2017-01-31T03:43:35.346Z,998.82
2017-01-31T03:44:35.360Z,998.87
2017-01-31T03:45:35.367Z,998.89
2017-01-31T03:46:35.381Z,998.9
2017-01-31T03:47:35.392Z,998.89
2017-01-31T03:48:35.404Z,998.85
2017-01-31T03:49:35.415Z,998.89
2017-01-31T03:50:35.425Z,998.89
2017-01-31T03:51:35.436Z,998.89
2017-01-31T03:52:35.448Z,998.91
2017-01-31T03:53:35.461Z,998.87
2017-01-31T03:54:35.472Z,998.93
2017-01-31T03:55:35.484Z,998.91
2017-01-31T03:56:35.496Z,998.93
2017-01-31T03:57:35.516Z,998.98
2017-01-31T03:58:35.519Z,998.95
2017-01-31T03:59:35.531Z,998.99
2017-01-31T04:00:35.542Z,998.99
2017-01-31T04:01:35.554Z,999.01
2017-01-31T04:02:35.565Z,998.99
2017-01-31T04:03:35.584Z,998.98
2017-01-31T04:04:35.592Z,999
2017-01-31T04:05:35.601Z,998.98
2017-01-31T04:06:35.613Z,998.99
2017-01-31T04:07:35.625Z,999
2017-01-31T04:08:35.637Z,998.95
2017-01-31T04:09:35.649Z,998.98
2017-01-31T04:10:35.660Z,998.96
2017-01-31T04:11:35.672Z,999.04
2017-01-31T04:12:35.683Z,999
2017-01-31T04:13:35.694Z,999
2017-01-31T04:14:35.707Z,999
2017-01-31T04:15:35.718Z,999.01
2017-01-31T04:16:35.730Z,999.01
2017-01-31T04:17:35.742Z,999.04
2017-01-31T04:18:35.755Z,999.08
2017-01-31T04:19:35.766Z,999.05
2017-01-31T04:20:35.781Z,999.06
2017-01-31T04:21:35.788Z,999.1
2017-01-31T04:22:35.802Z,999.08
2017-01-31T04:23:35.814Z,999.11
2017-01-31T04:24:35.825Z,999.1
2017-01-31T04:25:35.836Z,999.1
2017-01-31T04:26:35.846Z,999.12
2017-01-31T04:27:35.911Z,999.13
2017-01-31T04:28:35.871Z,999.15
2017-01-31T04:29:35.882Z,999.13
2017-01-31T04:30:35.894Z,999.19
2017-01-31T04:31:35.906Z,999.2
2017-01-31T04:32:35.918Z,999.2
2017-01-31T04:33:35.936Z,999.2
2017-01-31T04:34:35.943Z,999.22
2017-01-31T04:35:35.953Z,999.24
2017-01-31T04:36:35.964Z,999.24
2017-01-31T04:37:35.978Z,999.25
2017-01-31T04:38:35.989Z,999.28
2017-01-31T04:39:36.000Z,999.3
2017-01-31T04:40:36.012Z,999.3
2017-01-31T04:41:36.023Z,999.3
2017-01-31T04:42:36.035Z,999.28
2017-01-31T04:43:36.047Z,999.27
2017-01-31T04:44:36.060Z,999.29
2017-01-31T04:45:36.070Z,999.33
2017-01-31T04:46:36.111Z,999.35
2017-01-31T04:47:36.095Z,999.34
2017-01-31T04:48:36.106Z,999.34
2017-01-31T04:49:36.118Z,999.37
2017-01-31T04:50:36.129Z,999.42
2017-01-31T04:51:36.146Z,999.39
2017-01-31T04:52:36.154Z,999.45
2017-01-31T04:53:36.165Z,999.46
2017-01-31T04:54:36.174Z,999.47
2017-01-31T04:55:36.187Z,999.48
2017-01-31T04:56:36.201Z,999.45
2017-01-31T04:57:36.211Z,999.5
2017-01-31T04:58:36.230Z,999.52
2017-01-31T04:59:36.235Z,999.55
2017-01-31T05:00:36.265Z,999.51
2017-01-31T05:01:36.257Z,999.56
2017-01-31T05:02:36.271Z,999.52
2017-01-31T05:03:36.282Z,999.56
2017-01-31T05:04:36.294Z,999.54
2017-01-31T05:05:36.305Z,999.56
2017-01-31T05:06:36.318Z,999.59
2017-01-31T05:07:36.328Z,999.6
2017-01-31T05:08:36.339Z,999.62
2017-01-31T05:09:36.354Z,999.62
2017-01-31T05:10:36.365Z,999.65
2017-01-31T05:11:36.376Z,999.67
2017-01-31T05:12:36.388Z,999.63
2017-01-31T05:13:36.402Z,999.69
2017-01-31T05:14:36.413Z,999.69
2017-01-31T05:15:36.423Z,999.73
2017-01-31T05:16:36.435Z,999.73
2017-01-31T05:17:36.446Z,999.73
2017-01-31T05:18:36.462Z,999.73
2017-01-31T05:19:36.470Z,999.76
2017-01-31T05:20:36.482Z,999.77
2017-01-31T05:21:36.496Z,999.74
2017-01-31T05:22:36.505Z,999.77
2017-01-31T05:23:36.517Z,999.75
2017-01-31T05:24:36.531Z,999.75
2017-01-31T05:25:36.540Z,999.8
2017-01-31T05:26:36.552Z,999.78
2017-01-31T05:27:36.639Z,999.77
2017-01-31T05:28:36.576Z,999.78
2017-01-31T05:29:36.587Z,999.81
2017-01-31T05:30:36.599Z,999.79
2017-01-31T05:31:36.615Z,999.85
2017-01-31T05:32:36.623Z,999.84
2017-01-31T05:33:36.633Z,999.85
2017-01-31T05:34:36.645Z,999.87
2017-01-31T05:35:36.659Z,999.88
2017-01-31T05:36:36.669Z,999.91
2017-01-31T05:37:36.678Z,999.88
2017-01-31T05:38:36.691Z,999.92
2017-01-31T05:39:36.705Z,999.89
2017-01-31T05:40:36.716Z,999.91
2017-01-31T05:41:36.728Z,999.92
2017-01-31T05:42:36.739Z,999.91
2017-01-31T05:43:36.751Z,999.87
2017-01-31T05:44:36.761Z,999.89
2017-01-31T05:45:36.773Z,999.88
2017-01-31T05:46:36.785Z,999.92
2017-01-31T05:47:36.796Z,999.91
2017-01-31T05:48:36.808Z,999.97
2017-01-31T05:49:36.820Z,999.94
2017-01-31T05:50:36.833Z,999.94
2017-01-31T05:51:36.843Z,999.95
2017-01-31T05:52:36.855Z,1000.01
2017-01-31T05:53:36.867Z,1000
2017-01-31T05:54:36.880Z,999.99
2017-01-31T05:55:36.890Z,999.98
2017-01-31T05:56:36.902Z,1000.02
2017-01-31T05:57:36.914Z,1000
2017-01-31T05:58:36.924Z,1000
2017-01-31T05:59:36.937Z,1000.05
2017-01-31T06:00:36.951Z,1000.05
2017-01-31T06:01:36.964Z,1000.03
2017-01-31T06:02:36.971Z,1000.08
2017-01-31T06:03:36.984Z,1000.13
2017-01-31T06:04:36.995Z,1000.14
2017-01-31T06:05:37.007Z,1000.1
2017-01-31T06:06:37.019Z,1000.15
2017-01-31T06:07:37.031Z,1000.14
2017-01-31T06:08:37.042Z,1000.13
2017-01-31T06:09:37.053Z,1000.14
2017-01-31T06:10:37.066Z,1000.16
2017-01-31T06:11:37.081Z,1000.17
2017-01-31T06:12:37.092Z,1000.17
2017-01-31T06:13:37.099Z,1000.14
2017-01-31T06:14:37.111Z,1000.21
2017-01-31T06:15:37.123Z,1000.24
2017-01-31T06:16:37.136Z,1000.2
2017-01-31T06:17:37.146Z,1000.22
2017-01-31T06:18:37.159Z,1000.23
2017-01-31T06:19:37.171Z,1000.25
2017-01-31T06:20:37.182Z,1000.21
2017-01-31T06:21:37.192Z,1000.2
2017-01-31T06:22:37.206Z,1000.21
2017-01-31T06:23:37.218Z,1000.21
2017-01-31T06:24:37.230Z,1000.28
2017-01-31T06:25:37.240Z,1000.24
2017-01-31T06:26:37.252Z,1000.27
2017-01-31T06:27:37.264Z,1000.25
2017-01-31T06:28:37.275Z,1000.26
2017-01-31T06:29:37.287Z,1000.32
2017-01-31T06:30:37.298Z,1000.31
2017-01-31T06:31:37.309Z,1000.33
2017-01-31T06:32:37.322Z,1000.34
2017-01-31T06:33:37.336Z,1000.35
2017-01-31T06:34:37.345Z,1000.39
2017-01-31T06:35:37.359Z,1000.39
2017-01-31T06:36:37.370Z,1000.39
2017-01-31T06:37:37.383Z,1000.4
2017-01-31T06:38:37.394Z,1000.42
2017-01-31T06:39:37.406Z,1000.42
2017-01-31T06:40:37.415Z,1000.44
2017-01-31T06:41:37.428Z,1000.45
2017-01-31T06:42:37.437Z,1000.48
2017-01-31T06:43:37.450Z,1000.48
2017-01-31T06:44:37.485Z,1000.5
2017-01-31T06:45:37.472Z,1000.54
2017-01-31T06:46:37.485Z,1000.52
2017-01-31T06:47:37.497Z,1000.54
2017-01-31T06:48:37.509Z,1000.53
2017-01-31T06:49:37.534Z,1000.59
2017-01-31T06:50:37.534Z,1000.58
2017-01-31T06:51:37.546Z,1000.59
2017-01-31T06:52:37.557Z,1000.63
2017-01-31T06:53:37.570Z,1000.62
2017-01-31T06:54:37.580Z,1000.65
2017-01-31T06:55:37.592Z,1000.68
2017-01-31T06:56:37.603Z,1000.69
2017-01-31T06:57:37.616Z,1000.66
2017-01-31T06:58:37.629Z,1000.69
2017-01-31T06:59:37.639Z,1000.7
2017-01-31T07:00:37.652Z,1000.71
2017-01-31T07:01:37.663Z,1000.74
2017-01-31T07:02:37.674Z,1000.77
2017-01-31T07:03:37.686Z,1000.74
2017-01-31T07:04:37.699Z,1000.79
2017-01-31T07:05:37.709Z,1000.81
2017-01-31T07:06:37.721Z,1000.8
2017-01-31T07:07:37.734Z,1000.82
2017-01-31T07:08:37.745Z,1000.8
2017-01-31T07:09:37.756Z,1000.86
2017-01-31T07:10:37.768Z,1000.85
2017-01-31T07:11:37.780Z,1000.87
2017-01-31T07:12:37.791Z,1000.91
2017-01-31T07:13:37.802Z,1000.93
2017-01-31T07:14:37.816Z,1000.92
2017-01-31T07:15:37.826Z,1000.92
2017-01-31T07:16:37.839Z,1000.92
2017-01-31T07:17:37.850Z,1000.92
2017-01-31T07:18:37.863Z,1000.93
2017-01-31T07:19:37.874Z,1000.92
2017-01-31T07:20:37.886Z,1000.93
2017-01-31T07:21:37.899Z,1000.93
2017-01-31T07:22:37.907Z,1000.94
2017-01-31T07:23:37.921Z,1000.96
2017-01-31T07:24:37.932Z,1000.96
2017-01-31T07:25:37.943Z,1000.95
2017-01-31T07:26:37.955Z,1000.99
2017-01-31T07:27:37.968Z,1000.96
2017-01-31T07:28:37.977Z,1000.98
2017-01-31T07:29:37.990Z,1001
2017-01-31T07:30:38.002Z,1001.01
2017-01-31T07:31:38.014Z,1001.02
2017-01-31T07:32:38.026Z,1001.04
2017-01-31T07:33:38.042Z,1001.04
2017-01-31T07:34:38.054Z,1001.05
2017-01-31T07:35:38.062Z,1001.07
2017-01-31T07:36:38.075Z,1001.06
2017-01-31T07:37:38.086Z,1001.07
2017-01-31T07:38:38.097Z,1001.06
2017-01-31T07:39:38.108Z,1001.06
2017-01-31T07:40:38.120Z,1001.09
2017-01-31T07:41:38.129Z,1001.06
2017-01-31T07:42:38.147Z,1001.13
2017-01-31T07:43:38.155Z,1001.1
2017-01-31T07:44:38.166Z,1001.12
2017-01-31T07:45:38.178Z,1001.09
2017-01-31T07:46:38.190Z,1001.13
2017-01-31T07:47:38.201Z,1001.13
2017-01-31T07:48:38.212Z,1001.13
2017-01-31T07:49:38.225Z,1001.13
2017-01-31T07:50:38.236Z,1001.13
2017-01-31T07:51:38.248Z,1001.15
2017-01-31T07:52:38.260Z,1001.16
2017-01-31T07:53:38.271Z,1001.18
2017-01-31T07:54:38.284Z,1001.22
2017-01-31T07:55:38.293Z,1001.2
2017-01-31T07:56:38.305Z,1001.24
2017-01-31T07:57:38.316Z,1001.27
2017-01-31T07:58:38.330Z,1001.26
2017-01-31T07:59:38.341Z,1001.24
2017-01-31T08:00:38.352Z,1001.3
2017-01-31T08:01:38.365Z,1001.32
2017-01-31T08:02:38.378Z,1001.28
2017-01-31T08:03:38.386Z,1001.3
2017-01-31T08:04:38.398Z,1001.29
2017-01-31T08:05:38.412Z,1001.31
2017-01-31T08:06:38.422Z,1001.36
2017-01-31T08:07:38.435Z,1001.37
2017-01-31T08:08:38.449Z,1001.36
2017-01-31T08:09:38.458Z,1001.35
2017-01-31T08:10:38.470Z,1001.43
2017-01-31T08:11:38.482Z,1001.41
2017-01-31T08:12:38.494Z,1001.42
2017-01-31T08:13:38.506Z,1001.42
2017-01-31T08:14:38.516Z,1001.39
2017-01-31T08:15:38.529Z,1001.44
2017-01-31T08:16:38.539Z,1001.43
2017-01-31T08:17:38.552Z,1001.47
2017-01-31T08:18:38.564Z,1001.48
2017-01-31T08:19:38.575Z,1001.53
2017-01-31T08:20:38.589Z,1001.49
2017-01-31T08:21:38.600Z,1001.52
2017-01-31T08:22:38.611Z,1001.49
2017-01-31T08:23:38.623Z,1001.52
2017-01-31T08:24:38.636Z,1001.48
2017-01-31T08:25:38.647Z,1001.5
2017-01-31T08:26:38.659Z,1001.56
2017-01-31T08:27:38.672Z,1001.53
2017-01-31T08:28:38.682Z,1001.54
2017-01-31T08:29:38.694Z,1001.55
2017-01-31T08:30:38.707Z,1001.55
2017-01-31T08:31:38.721Z,1001.58
2017-01-31T08:32:38.728Z,1001.57
2017-01-31T08:33:38.740Z,1001.6
2017-01-31T08:34:38.752Z,1001.56
2017-01-31T08:35:38.764Z,1001.6
2017-01-31T08:36:38.776Z,1001.62
2017-01-31T08:37:38.789Z,1001.67
2017-01-31T08:38:38.800Z,1001.66
2017-01-31T08:39:38.811Z,1001.64
2017-01-31T08:40:38.824Z,1001.67
2017-01-31T08:41:38.837Z,1001.69
2017-01-31T08:42:38.848Z,1001.72
2017-01-31T08:43:38.858Z,1001.72
2017-01-31T08:44:38.871Z,1001.72
2017-01-31T08:45:38.882Z,1001.7
2017-01-31T08:46:38.894Z,1001.73
2017-01-31T08:47:38.905Z,1001.74
2017-01-31T08:48:38.919Z,1001.71
2017-01-31T08:49:38.932Z,1001.74
2017-01-31T08:50:38.943Z,1001.75
2017-01-31T08:51:38.956Z,1001.74
2017-01-31T08:52:38.967Z,1001.74
2017-01-31T08:53:38.978Z,1001.77
2017-01-31T08:54:38.986Z,1001.79
2017-01-31T08:55:39.007Z,1001.88
2017-01-31T08:56:39.012Z,1001.85
2017-01-31T08:57:39.025Z,1001.85
2017-01-31T08:58:39.037Z,1001.86
2017-01-31T08:59:39.050Z,1001.86
2017-01-31T09:00:39.058Z,1001.88
2017-01-31T09:01:39.070Z,1001.89
2017-01-31T09:02:39.083Z,1001.9
2017-01-31T09:03:39.095Z,1001.9
2017-01-31T09:04:39.107Z,1001.9
2017-01-31T09:05:39.120Z,1001.95
2017-01-31T09:06:39.130Z,1001.97
2017-01-31T09:07:39.143Z,1001.97
2017-01-31T09:08:39.153Z,1001.98
2017-01-31T09:09:39.167Z,1002.03
2017-01-31T09:10:39.181Z,1002.02
2017-01-31T09:11:39.192Z,1002.06
2017-01-31T09:12:39.201Z,1002.04
2017-01-31T09:13:39.212Z,1002.07
2017-01-31T09:14:39.223Z,1002.08
2017-01-31T09:15:39.237Z,1002.12
2017-01-31T09:16:39.247Z,1002.15
2017-01-31T09:17:39.259Z,1002.12
2017-01-31T09:18:39.271Z,1002.15
2017-01-31T09:19:39.295Z,1002.13
2017-01-31T09:20:39.294Z,1002.19
2017-01-31T09:21:39.306Z,1002.15
2017-01-31T09:22:39.318Z,1002.17
2017-01-31T09:23:39.330Z,1002.18
2017-01-31T09:24:39.341Z,1002.18
2017-01-31T09:25:39.353Z,1002.19
2017-01-31T09:26:39.366Z,1002.25
2017-01-31T09:27:39.380Z,1002.25
2017-01-31T09:28:39.439Z,1002.24
2017-01-31T09:29:39.402Z,1002.25
2017-01-31T09:30:39.414Z,1002.24
2017-01-31T09:31:39.426Z,1002.27
2017-01-31T09:32:39.435Z,1002.22
2017-01-31T09:33:39.449Z,1002.27
2017-01-31T09:34:39.457Z,1002.29
2017-01-31T09:35:39.475Z,1002.24
2017-01-31T09:36:39.484Z,1002.27
2017-01-31T09:37:39.495Z,1002.28
2017-01-31T09:38:39.507Z,1002.33
2017-01-31T09:39:39.519Z,1002.32
2017-01-31T09:40:39.532Z,1002.3
2017-01-31T09:41:39.544Z,1002.34
2017-01-31T09:42:39.556Z,1002.37
2017-01-31T09:43:39.566Z,1002.35
2017-01-31T09:44:39.579Z,1002.37
2017-01-31T09:45:39.590Z,1002.39
2017-01-31T09:46:39.602Z,1002.41
2017-01-31T09:47:39.615Z,1002.41
2017-01-31T09:48:39.630Z,1002.4
2017-01-31T09:49:39.636Z,1002.43
2017-01-31T09:50:39.646Z,1002.42
2017-01-31T09:51:39.660Z,1002.44
2017-01-31T09:52:39.676Z,1002.49
2017-01-31T09:53:39.682Z,1002.48
2017-01-31T09:54:39.696Z,1002.5
2017-01-31T09:55:39.709Z,1002.51
2017-01-31T09:56:39.721Z,1002.48
2017-01-31T09:57:39.731Z,1002.49
2017-01-31T09:58:39.745Z,1002.48
2017-01-31T09:59:39.754Z,1002.5
2017-01-31T10:00:39.767Z,1002.48
2017-01-31T10:01:39.779Z,1002.48
2017-01-31T10:02:39.793Z,1002.47
2017-01-31T10:03:39.804Z,1002.51
2017-01-31T10:04:39.815Z,1002.52
2017-01-31T10:05:39.828Z,1002.49
2017-01-31T10:06:39.841Z,1002.52
2017-01-31T10:07:39.852Z,1002.52
2017-01-31T10:08:39.865Z,1002.53
2017-01-31T10:09:39.874Z,1002.56
2017-01-31T10:10:39.889Z,1002.55
2017-01-31T10:11:39.896Z,1002.56
2017-01-31T10:12:39.913Z,1002.55
2017-01-31T10:13:39.920Z,1002.57
2017-01-31T10:14:39.931Z,1002.56
2017-01-31T10:15:39.944Z,1002.59
2017-01-31T10:16:39.957Z,1002.57
2017-01-31T10:17:39.968Z,1002.53
2017-01-31T10:18:39.980Z,1002.58
2017-01-31T10:19:39.991Z,1002.56
2017-01-31T10:20:40.004Z,1002.56
2017-01-31T10:21:40.015Z,1002.61
2017-01-31T10:22:40.026Z,1002.61
2017-01-31T10:23:40.049Z,1002.62
2017-01-31T10:24:40.050Z,1002.62
2017-01-31T10:25:40.064Z,1002.64
2017-01-31T10:26:40.076Z,1002.66
2017-01-31T10:27:40.090Z,1002.67
2017-01-31T10:28:40.099Z,1002.65
2017-01-31T10:29:40.110Z,1002.64
2017-01-31T10:30:40.125Z,1002.61
2017-01-31T10:31:40.132Z,1002.64
2017-01-31T10:32:40.142Z,1002.63
2017-01-31T10:33:40.154Z,1002.61
2017-01-31T10:34:40.167Z,1002.6
2017-01-31T10:35:40.178Z,1002.62
2017-01-31T10:36:40.190Z,1002.62
2017-01-31T10:37:40.202Z,1002.62
2017-01-31T10:38:40.214Z,1002.62
2017-01-31T10:39:40.227Z,1002.63
2017-01-31T10:40:40.238Z,1002.63
2017-01-31T10:41:40.250Z,1002.64
2017-01-31T10:42:40.262Z,1002.65
2017-01-31T10:43:40.274Z,1002.63
2017-01-31T10:44:40.286Z,1002.64
2017-01-31T10:45:40.297Z,1002.62
2017-01-31T10:46:40.309Z,1002.61
2017-01-31T10:47:40.322Z,1002.64
2017-01-31T10:48:40.334Z,1002.64
2017-01-31T10:49:40.349Z,1002.64
2017-01-31T10:50:40.365Z,1002.64
2017-01-31T10:51:40.371Z,1002.65
2017-01-31T10:52:40.384Z,1002.64
2017-01-31T10:53:40.393Z,1002.67
2017-01-31T10:54:40.405Z,1002.63
2017-01-31T10:55:40.418Z,1002.66
2017-01-31T10:56:40.429Z,1002.65
2017-01-31T10:57:40.441Z,1002.67
2017-01-31T10:58:40.455Z,1002.66
2017-01-31T10:59:40.466Z,1002.64
2017-01-31T11:00:40.482Z,1002.64
2017-01-31T11:01:40.494Z,1002.7
2017-01-31T11:02:40.503Z,1002.7
2017-01-31T11:03:40.516Z,1002.68
2017-01-31T11:04:40.527Z,1002.68
2017-01-31T11:05:40.537Z,1002.73
2017-01-31T11:06:40.550Z,1002.7
2017-01-31T11:07:40.565Z,1002.72
2017-01-31T11:08:40.575Z,1002.7
2017-01-31T11:09:40.583Z,1002.74
2017-01-31T11:10:40.599Z,1002.74
2017-01-31T11:11:40.609Z,1002.76
2017-01-31T11:12:40.623Z,1002.76
2017-01-31T11:13:40.634Z,1002.8
2017-01-31T11:14:40.648Z,1002.83
2017-01-31T11:15:40.659Z,1002.86
2017-01-31T11:16:40.670Z,1002.86
2017-01-31T11:17:40.683Z,1002.82
2017-01-31T11:18:40.695Z,1002.88
2017-01-31T11:19:40.706Z,1002.85
2017-01-31T11:20:40.719Z,1002.9
2017-01-31T11:21:40.732Z,1002.89
2017-01-31T11:22:40.743Z,1002.9
2017-01-31T11:23:40.756Z,1002.9
2017-01-31T11:24:40.769Z,1002.94
2017-01-31T11:25:40.779Z,1002.97
2017-01-31T11:26:40.792Z,1002.98
2017-01-31T11:27:40.803Z,1002.94
2017-01-31T11:28:40.814Z,1002.95
2017-01-31T11:29:40.827Z,1002.94
2017-01-31T11:30:40.840Z,1002.98
2017-01-31T11:31:40.849Z,1002.95
2017-01-31T11:32:40.864Z,1002.97
2017-01-31T11:33:40.875Z,1002.98
2017-01-31T11:34:40.889Z,1002.98
2017-01-31T11:35:40.901Z,1003.01
2017-01-31T11:36:40.913Z,1003
2017-01-31T11:37:40.924Z,1003.01
2017-01-31T11:38:40.940Z,1002.99
2017-01-31T11:39:40.949Z,1003.02
2017-01-31T11:40:40.961Z,1003.04
2017-01-31T11:41:40.976Z,1003.02
2017-01-31T11:42:40.986Z,1003
2017-01-31T11:43:40.997Z,1002.98
2017-01-31T11:44:41.010Z,1003.02
2017-01-31T11:45:41.021Z,1003.05
2017-01-31T11:46:41.034Z,1003.05
2017-01-31T11:47:41.047Z,1003.07
2017-01-31T11:48:41.058Z,1003.04
2017-01-31T11:49:41.071Z,1003.08
2017-01-31T11:50:41.089Z,1003.06
2017-01-31T11:51:41.102Z,1003.09
2017-01-31T11:52:41.106Z,1003.13
2017-01-31T11:53:41.121Z,1003.12
2017-01-31T11:54:41.131Z,1003.13
2017-01-31T11:55:41.143Z,1003.16
2017-01-31T11:56:41.162Z,1003.13
2017-01-31T11:57:41.170Z,1003.13
2017-01-31T11:58:41.183Z,1003.13
2017-01-31T11:59:41.193Z,1003.14
2017-01-31T12:00:41.205Z,1003.14
2017-01-31T12:01:41.215Z,1003.17
2017-01-31T12:02:41.227Z,1003.14
2017-01-31T12:03:41.246Z,1003.17
2017-01-31T12:04:41.255Z,1003.17
2017-01-31T12:05:41.264Z,1003.16
2017-01-31T12:06:41.281Z,1003.17
2017-01-31T12:07:41.292Z,1003.16
2017-01-31T12:08:41.300Z,1003.15
2017-01-31T12:09:41.314Z,1003.13
2017-01-31T12:10:41.330Z,1003.14
2017-01-31T12:11:41.338Z,1003.17
2017-01-31T12:12:41.349Z,1003.17
2017-01-31T12:13:41.361Z,1003.17
2017-01-31T12:14:41.376Z,1003.18
2017-01-31T12:15:41.389Z,1003.2
2017-01-31T12:16:41.402Z,1003.21
2017-01-31T12:17:41.410Z,1003.17
2017-01-31T12:18:41.422Z,1003.17
2017-01-31T12:19:41.436Z,1003.19